^^
Station Historical Data
Daily Summary for May 9, 2019 Units:  English    Metric   Both
« Previous Day
Next Day »
Daily Weekly Monthly Yearly Custom
  High: Low: Average:
Temperature: 53.5 °F 27.1 °F 41.5 °F
Dew Point: 30.5 °F 16.3 °F 24.7 °F
Humidity: 86% 27% 55%
Wind Speed: 20mph 1mph 9.1mph
Wind Gust: 24mph - -
Wind- - SSW
Pressure: 30.17 in 30.07 in -
Precipitation: 0 in    
Historical Graphs
 
 
Tabular Data for May 9, 2019
Time Temperature Dew Point Pressure Wind Wind Speed Wind Gust Humidity Rainfall Rate (Hourly) solar Conditions
00:04 37.3 °F 28.1 °F 30.11 in NE 12 mph 19 mph 69% 0 in 0.00 W/m2
00:09 37.1 °F 27.9 °F 30.12 in NNE 13 mph 19 mph 69% 0 in 0.00 W/m2
00:14 36.9 °F 28 °F 30.12 in NE 9 mph 17 mph 70% 0 in 0.00 W/m2
00:19 37 °F 28.1 °F 30.12 in NNE 15 mph 19 mph 70% 0 in 0.00 W/m2
00:24 36.9 °F 28 °F 30.12 in NNE 12 mph 19 mph 70% 0 in 0.00 W/m2
00:29 36.8 °F 27.9 °F 30.12 in NE 15 mph 17 mph 70% 0 in 0.00 W/m2
00:34 36.7 °F 27.8 °F 30.12 in NNE 15 mph 19 mph 70% 0 in 0.00 W/m2
00:39 36.6 °F 27.7 °F 30.12 in NNE 11 mph 19 mph 70% 0 in 0.00 W/m2
00:44 36.5 °F 28 °F 30.12 in NNE 8 mph 19 mph 71% 0 in 0.00 W/m2
00:49 36.5 °F 28 °F 30.12 in NNE 11 mph 21 mph 71% 0 in 0.00 W/m2
00:54 36.3 °F 27.8 °F 30.12 in NE 16 mph 21 mph 71% 0 in 0.00 W/m2
00:59 36.1 °F 27.9 °F 30.12 in NNE 9 mph 20 mph 72% 0 in 0.00 W/m2
01:04 36 °F 27.8 °F 30.12 in NNE 12 mph 20 mph 72% 0 in 0.00 W/m2
01:09 35.8 °F 28 °F 30.13 in NNE 12 mph 19 mph 73% 0 in 0.00 W/m2
01:14 35.7 °F 27.9 °F 30.13 in NNE 11 mph 20 mph 73% 0 in 0.00 W/m2
01:19 35.5 °F 27.7 °F 30.13 in NNE 13 mph 20 mph 73% 0 in 0.00 W/m2
01:24 35.4 °F 27.9 °F 30.13 in NNE 13 mph 20 mph 74% 0 in 0.00 W/m2
01:29 35.2 °F 27.7 °F 30.13 in NNE 17 mph 20 mph 74% 0 in 0.00 W/m2
01:35 35 °F 27.5 °F 30.13 in NE 15 mph 21 mph 74% 0 in 0.00 W/m2
01:40 34.9 °F 27.8 °F 30.13 in North 14 mph 21 mph 75% 0 in 0.00 W/m2
01:45 34.7 °F 27.6 °F 30.13 in NNE 10 mph 19 mph 75% 0 in 0.00 W/m2
01:50 34.5 °F 27.4 °F 30.13 in NNE 10 mph 18 mph 75% 0 in 0.00 W/m2
01:55 34.4 °F 27.6 °F 30.13 in NNE 12 mph 18 mph 76% 0 in 0.00 W/m2
02:00 34.1 °F 27.3 °F 30.14 in NNE 12 mph 18 mph 76% 0 in 0.00 W/m2
02:05 34 °F 27.2 °F 30.14 in NE 10 mph 18 mph 76% 0 in 0.00 W/m2
02:09 33.8 °F 27.4 °F 30.14 in NNE 12 mph 16 mph 77% 0 in 0.00 W/m2
02:14 33.7 °F 27.3 °F 30.14 in NNE 8 mph 16 mph 77% 0 in 0.00 W/m2
02:19 33.7 °F 27.3 °F 30.14 in NNE 9 mph 16 mph 77% 0 in 0.00 W/m2
02:24 33.6 °F 27.2 °F 30.14 in NNE 9 mph 16 mph 77% 0 in 0.00 W/m2
02:29 33.4 °F 27 °F 30.14 in NNE 11 mph 15 mph 77% 0 in 0.00 W/m2
02:34 33.3 °F 26.9 °F 30.14 in NNE 9 mph 15 mph 77% 0 in 0.00 W/m2
02:39 33.2 °F 26.8 °F 30.14 in NE 12 mph 15 mph 77% 0 in 0.00 W/m2
02:44 33 °F 26.6 °F 30.14 in NNE 11 mph 15 mph 77% 0 in 0.00 W/m2
02:49 32.8 °F 26.4 °F 30.14 in North 6 mph 15 mph 77% 0 in 0.00 W/m2
02:54 32.5 °F 26.4 °F 30.14 in NNE 11 mph 15 mph 78% 0 in 0.00 W/m2
02:59 32.4 °F 26.3 °F 30.15 in North 9 mph 14 mph 78% 0 in 0.00 W/m2
03:04 32.3 °F 26.2 °F 30.15 in NNE 10 mph 14 mph 78% 0 in 0.00 W/m2
03:09 32.1 °F 26.3 °F 30.15 in North 9 mph 13 mph 79% 0 in 0.00 W/m2
03:14 31.9 °F 26.1 °F 30.15 in NNE 10 mph 15 mph 79% 0 in 0.00 W/m2
03:19 32 °F 26.5 °F 30.15 in North 10 mph 15 mph 80% 0 in 0.00 W/m2
03:24 32.1 °F 26.3 °F 30.15 in NNE 10 mph 16 mph 79% 0 in 0.00 W/m2
03:29 32.1 °F 26.3 °F 30.15 in NNE 16 mph 17 mph 79% 0 in 0.00 W/m2
03:34 32.2 °F 26.4 °F 30.15 in NNE 14 mph 17 mph 79% 0 in 0.00 W/m2
03:40 32.2 °F 26.4 °F 30.15 in NNE 9 mph 17 mph 79% 0 in 0.00 W/m2
03:45 32 °F 26.2 °F 30.15 in North 11 mph 16 mph 79% 0 in 0.00 W/m2
03:50 31.7 °F 25.9 °F 30.15 in NNE 10 mph 16 mph 79% 0 in 0.00 W/m2
03:55 31.6 °F 26.1 °F 30.15 in NNE 9 mph 16 mph 80% 0 in 0.00 W/m2
04:00 31.5 °F 26 °F 30.15 in NNE 10 mph 16 mph 80% 0 in 0.00 W/m2
04:05 31.3 °F 25.8 °F 30.15 in NNE 11 mph 16 mph 80% 0 in 0.00 W/m2
04:10 31.1 °F 25.7 °F 30.15 in NNE 13 mph 16 mph 80% 0 in 0.00 W/m2
04:15 31 °F 25.6 °F 30.15 in NNE 13 mph 14 mph 80% 0 in 0.00 W/m2
04:19 30.8 °F 25.7 °F 30.15 in NNE 11 mph 15 mph 81% 0 in 0.00 W/m2
04:24 30.6 °F 25.5 °F 30.16 in NNE 7 mph 15 mph 81% 0 in 0.00 W/m2
04:29 30.2 °F 25.1 °F 30.16 in NNE 8 mph 15 mph 81% 0 in 0.00 W/m2
04:34 29.8 °F 24.7 °F 30.16 in North 9 mph 15 mph 81% 0 in 0.00 W/m2
04:39 29.4 °F 24.6 °F 30.16 in North 6 mph 11 mph 82% 0 in 0.00 W/m2
04:44 29.2 °F 24.4 °F 30.16 in North 9 mph 11 mph 82% 0 in 0.00 W/m2
04:49 29 °F 24.5 °F 30.16 in North 6 mph 11 mph 83% 0 in 0.00 W/m2
04:54 28.9 °F 24.7 °F 30.16 in North 8 mph 11 mph 84% 0 in 0.00 W/m2
04:59 29 °F 24.8 °F 30.16 in North 5 mph 10 mph 84% 0 in 0.00 W/m2
05:04 29 °F 24.8 °F 30.16 in NNE 9 mph 11 mph 84% 0 in 0.00 W/m2
05:09 29.1 °F 24.9 °F 30.16 in North 6 mph 11 mph 84% 0 in 0.00 W/m2
05:14 29 °F 24.8 °F 30.16 in North 6 mph 11 mph 84% 0 in 0.00 W/m2
05:19 28.8 °F 24.6 °F 30.16 in NNW 6 mph 11 mph 84% 0 in 0.00 W/m2
05:24 28.5 °F 24.3 °F 30.16 in North 5 mph 8 mph 84% 0 in 0.00 W/m2
05:29 28.4 °F 24.2 °F 30.16 in North 5 mph 9 mph 84% 0 in 0.00 W/m2
05:34 28.4 °F 24.5 °F 30.16 in North 9 mph 10 mph 85% 0 in 0.00 W/m2
05:39 28.6 °F 24.7 °F 30.15 in North 10 mph 11 mph 85% 0 in 0.00 W/m2
05:45 28.7 °F 24.8 °F 30.16 in North 6 mph 11 mph 85% 0 in 0.00 W/m2
05:50 28.9 °F 25 °F 30.15 in North 10 mph 12 mph 85% 0 in 0.00 W/m2
05:55 28.9 °F 25 °F 30.16 in North 8 mph 12 mph 85% 0 in 0.00 W/m2
05:59 28.9 °F 24.7 °F 30.16 in NNW 6 mph 12 mph 84% 0 in 0.00 W/m2
06:05 28.6 °F 24.1 °F 30.16 in NNW 4 mph 12 mph 83% 0 in 0.00 W/m2
06:10 28.2 °F 24 °F 30.16 in NNW 4 mph 9 mph 84% 0 in 0.00 W/m2
06:14 27.9 °F 23.7 °F 30.16 in NNW 2 mph 9 mph 84% 0 in 7.00 W/m2
06:20 27.7 °F 23.5 °F 30.16 in NNW 4 mph 6 mph 84% 0 in 7.00 W/m2
06:24 27.7 °F 23.8 °F 30.16 in NNW 8 mph 9 mph 85% 0 in 11.00 W/m2
06:29 27.9 °F 24 °F 30.16 in NNW 5 mph 9 mph 85% 0 in 16.00 W/m2
06:34 28.1 °F 24.2 °F 30.16 in NNW 2 mph 9 mph 85% 0 in 23.00 W/m2
06:39 27.8 °F 23.6 °F 30.16 in NNW 2 mph 9 mph 84% 0 in 26.00 W/m2
06:44 27.5 °F 23.6 °F 30.16 in NNW 4 mph 5 mph 85% 0 in 28.00 W/m2
06:49 27.1 °F 23.2 °F 30.16 in NW 4 mph 5 mph 85% 0 in 32.00 W/m2
06:54 27.1 °F 23.5 °F 30.16 in NW 3 mph 7 mph 86% 0 in 33.00 W/m2
06:59 27.4 °F 23.8 °F 30.16 in NW 4 mph 7 mph 86% 0 in 35.00 W/m2
07:04 27.6 °F 24 °F 30.17 in NW 4 mph 7 mph 86% 0 in 37.00 W/m2
07:09 27.8 °F 24.2 °F 30.17 in NW 4 mph 7 mph 86% 0 in 40.00 W/m2
07:14 27.9 °F 24.3 °F 30.17 in NW 5 mph 7 mph 86% 0 in 44.00 W/m2
07:19 28.5 °F 24.8 °F 30.17 in NW 6 mph 7 mph 86% 0 in 47.00 W/m2
07:24 28.8 °F 25.1 °F 30.17 in NW 4 mph 8 mph 86% 0 in 49.00 W/m2
07:29 29.1 °F 25.4 °F 30.17 in NW 7 mph 8 mph 86% 0 in 49.00 W/m2
07:34 29.5 °F 25.8 °F 30.17 in NW 5 mph 8 mph 86% 0 in 46.00 W/m2
07:39 30 °F 26 °F 30.17 in NW 5 mph 9 mph 85% 0 in 44.00 W/m2
07:45 30.6 °F 26.3 °F 30.17 in NNW 4 mph 9 mph 84% 0 in 42.00 W/m2
07:50 31.4 °F 26.8 °F 30.17 in NNW 11 mph 13 mph 83% 0 in 171.00 W/m2
07:55 32 °F 26.8 °F 30.17 in NNW 11 mph 14 mph 81% 0 in 211.00 W/m2
07:59 32.5 °F 26.7 °F 30.17 in NNW 11 mph 15 mph 79% 0 in 225.00 W/m2
08:05 32.9 °F 26.8 °F 30.17 in NNW 9 mph 17 mph 78% 0 in 243.00 W/m2
08:10 33.3 °F 26.9 °F 30.17 in North 6 mph 17 mph 77% 0 in 272.00 W/m2
08:14 33.8 °F 27 °F 30.17 in NNW 16 mph 16 mph 76% 0 in 279.00 W/m2
08:19 34.3 °F 27.2 °F 30.17 in NNW 10 mph 17 mph 75% 0 in 239.00 W/m2
08:24 34.7 °F 27.3 °F 30.17 in North 11 mph 17 mph 74% 0 in 255.00 W/m2
08:29 35.2 °F 27.7 °F 30.17 in North 15 mph 18 mph 74% 0 in 316.00 W/m2
08:34 35.7 °F 27.9 °F 30.17 in North 6 mph 18 mph 73% 0 in 338.00 W/m2
08:39 36.2 °F 28 °F 30.17 in North 13 mph 18 mph 72% 0 in 357.00 W/m2
08:44 36.6 °F 28.1 °F 30.17 in NNE 12 mph 18 mph 71% 0 in 374.00 W/m2
08:49 37.1 °F 28.6 °F 30.17 in North 12 mph 18 mph 71% 0 in 388.00 W/m2
08:54 37.4 °F 28.2 °F 30.17 in NNW 13 mph 18 mph 69% 0 in 403.00 W/m2
08:59 37.7 °F 28.8 °F 30.17 in North 13 mph 18 mph 70% 0 in 417.00 W/m2
09:04 38.4 °F 29.5 °F 30.17 in NNE 17 mph 18 mph 70% 0 in 432.00 W/m2
09:09 39.1 °F 29.8 °F 30.17 in North 15 mph 18 mph 69% 0 in 446.00 W/m2
09:14 39.6 °F 29.9 °F 30.16 in NNE 8 mph 18 mph 68% 0 in 462.00 W/m2
09:19 39.9 °F 29.8 °F 30.17 in NNE 18 mph 22 mph 67% 0 in 476.00 W/m2
09:24 39.9 °F 29.8 °F 30.16 in North 17 mph 22 mph 67% 0 in 489.00 W/m2
09:29 40.3 °F 29.8 °F 30.16 in North 18 mph 22 mph 66% 0 in 504.00 W/m2
09:34 40.7 °F 30.2 °F 30.16 in North 20 mph 22 mph 66% 0 in 543.00 W/m2
09:39 40.6 °F 29.4 °F 30.16 in NNW 12 mph 22 mph 64% 0 in 541.00 W/m2
09:44 41.1 °F 30.2 °F 30.16 in NNW 17 mph 22 mph 65% 0 in 563.00 W/m2
09:49 41 °F 29.4 °F 30.16 in NNW 14 mph 22 mph 63% 0 in 638.00 W/m2
09:55 41.6 °F 29.9 °F 30.16 in North 12 mph 22 mph 63% 0 in 612.00 W/m2
10:00 41.8 °F 29.3 °F 30.16 in NNW 9 mph 23 mph 61% 0 in 647.00 W/m2
10:05 42.3 °F 29.8 °F 30.16 in NNW 14 mph 23 mph 61% 0 in 680.00 W/m2
10:10 42.9 °F 30 °F 30.16 in NNW 10 mph 23 mph 60% 0 in 728.00 W/m2
10:15 43.1 °F 29.7 °F 30.16 in NNW 10 mph 23 mph 59% 0 in 642.00 W/m2
10:19 43.2 °F 30.2 °F 30.16 in NNW 12 mph 20 mph 60% 0 in 791.00 W/m2
10:24 43.9 °F 30.5 °F 30.16 in NNE 11 mph 20 mph 59% 0 in 861.00 W/m2
10:29 44.1 °F 28.5 °F 30.16 in NNW 13 mph 21 mph 54% 0 in 193.00 W/m2
10:34 43.2 °F 29 °F 30.16 in North 15 mph 21 mph 57% 0 in 807.00 W/m2
10:39 44.2 °F 29 °F 30.16 in North 12 mph 20 mph 55% 0 in 802.00 W/m2
10:44 43.8 °F 28.2 °F 30.16 in North 16 mph 22 mph 54% 0 in 225.00 W/m2
10:49 43.8 °F 29.1 °F 30.16 in NNE 9 mph 22 mph 56% 0 in 782.00 W/m2
10:54 44.2 °F 28.1 °F 30.16 in NNE 10 mph 23 mph 53% 0 in 863.00 W/m2
10:59 43.9 °F 28.3 °F 30.16 in NNW 12 mph 23 mph 54% 0 in 766.00 W/m2
11:04 44 °F 27.5 °F 30.16 in North 9 mph 21 mph 52% 0 in 728.00 W/m2
11:09 44.6 °F 28 °F 30.16 in NNW 14 mph 20 mph 52% 0 in 710.00 W/m2
11:14 44.5 °F 26 °F 30.16 in NNW 15 mph 21 mph 48% 0 in 719.00 W/m2
11:19 44.7 °F 28.1 °F 30.16 in North 15 mph 22 mph 52% 0 in 628.00 W/m2
11:24 45.5 °F 28.4 °F 30.16 in North 14 mph 22 mph 51% 0 in 636.00 W/m2
11:29 46.2 °F 27.6 °F 30.16 in NNW 18 mph 22 mph 48% 0 in 654.00 W/m2
11:34 45.6 °F 27 °F 30.16 in NNW 16 mph 24 mph 48% 0 in 696.00 W/m2
11:39 45.7 °F 27.1 °F 30.16 in NW 13 mph 24 mph 48% 0 in 744.00 W/m2
11:44 46 °F 27.9 °F 30.16 in NNE 12 mph 24 mph 49% 0 in 798.00 W/m2
11:49 46.5 °F 27.3 °F 30.16 in NNW 10 mph 24 mph 47% 0 in 831.00 W/m2
11:54 46.3 °F 27.7 °F 30.16 in NNE 16 mph 24 mph 48% 0 in 835.00 W/m2
11:59 47.3 °F 28.1 °F 30.16 in NNE 16 mph 24 mph 47% 0 in 844.00 W/m2
12:04 47.3 °F 27.5 °F 30.16 in NNE 19 mph 22 mph 46% 0 in 847.00 W/m2
12:09 47.6 °F 28.9 °F 30.16 in NNW 12 mph 22 mph 48% 0 in 853.00 W/m2
12:15 48 °F 28.2 °F 30.16 in NNW 17 mph 19 mph 46% 0 in 861.00 W/m2
12:19 47.5 °F 27.7 °F 30.16 in NNW 9 mph 23 mph 46% 0 in 867.00 W/m2
12:24 48.2 °F 27.3 °F 30.16 in NNE 12 mph 23 mph 44% 0 in 874.00 W/m2
12:29 48.8 °F 28.4 °F 30.15 in North 12 mph 23 mph 45% 0 in 882.00 W/m2
12:34 47.9 °F 25.9 °F 30.15 in North 12 mph 23 mph 42% 0 in 886.00 W/m2
12:39 47.3 °F 26.5 °F 30.15 in North 12 mph 21 mph 44% 0 in 891.00 W/m2
12:44 47.7 °F 28.4 °F 30.15 in NNW 9 mph 21 mph 47% 0 in 914.00 W/m2
12:49 47.9 °F 27.6 °F 30.15 in NNE 11 mph 24 mph 45% 0 in 895.00 W/m2
12:54 48.8 °F 27.8 °F 30.15 in NNW 14 mph 24 mph 44% 0 in 900.00 W/m2
12:59 48.8 °F 26.7 °F 30.15 in NNW 18 mph 24 mph 42% 0 in 904.00 W/m2
13:04 48.7 °F 26 °F 30.15 in NNW 18 mph 24 mph 41% 0 in 904.00 W/m2
13:09 48.9 °F 26.8 °F 30.15 in NNW 18 mph 22 mph 42% 0 in 919.00 W/m2
13:14 49.1 °F 26.4 °F 30.15 in North 18 mph 22 mph 41% 0 in 907.00 W/m2
13:19 49.7 °F 27.5 °F 30.14 in NNE 15 mph 22 mph 42% 0 in 912.00 W/m2
13:24 50.3 °F 26.3 °F 30.14 in North 9 mph 22 mph 39% 0 in 912.00 W/m2
13:29 49.9 °F 25.3 °F 30.14 in NNW 10 mph 21 mph 38% 0 in 912.00 W/m2
13:34 49.3 °F 27.2 °F 30.14 in NNE 13 mph 20 mph 42% 0 in 916.00 W/m2
13:39 50.3 °F 27.5 °F 30.14 in NNW 13 mph 21 mph 41% 0 in 919.00 W/m2
13:44 50.6 °F 27.7 °F 30.14 in NNE 14 mph 21 mph 41% 0 in 916.00 W/m2
13:49 50.9 °F 27.4 °F 30.14 in North 15 mph 21 mph 40% 0 in 921.00 W/m2
13:54 51 °F 28.7 °F 30.14 in NNW 11 mph 21 mph 42% 0 in 916.00 W/m2
13:59 50 °F 22.7 °F 30.14 in NW 12 mph 21 mph 34% 0 in 912.00 W/m2
14:04 48.6 °F 25.9 °F 30.14 in North 14 mph 21 mph 41% 0 in 911.00 W/m2
14:09 49.9 °F 27.7 °F 30.14 in NNE 9 mph 22 mph 42% 0 in 911.00 W/m2
14:14 49.5 °F 24.3 °F 30.14 in NW 10 mph 22 mph 37% 0 in 912.00 W/m2
14:19 48.8 °F 27.3 °F 30.13 in North 10 mph 22 mph 43% 0 in 907.00 W/m2
14:24 50.1 °F 27.3 °F 30.14 in North 6 mph 22 mph 41% 0 in 905.00 W/m2
14:29 50.9 °F 28 °F 30.13 in NNE 5 mph 18 mph 41% 0 in 905.00 W/m2
14:34 51.5 °F 27.3 °F 30.13 in NNW 19 mph 23 mph 39% 0 in 925.00 W/m2
14:39 50.9 °F 26.2 °F 30.13 in North 9 mph 23 mph 38% 0 in 912.00 W/m2
14:44 50.6 °F 25.9 °F 30.13 in North 8 mph 20 mph 38% 0 in 898.00 W/m2
14:49 50.6 °F 27.7 °F 30.13 in NNE 4 mph 19 mph 41% 0 in 926.00 W/m2
14:54 50.5 °F 25.8 °F 30.13 in NNW 14 mph 19 mph 38% 0 in 265.00 W/m2
14:59 49.1 °F 27.5 °F 30.13 in NNE 5 mph 19 mph 43% 0 in 896.00 W/m2
15:04 50 °F 25.4 °F 30.13 in NW 12 mph 19 mph 38% 0 in 891.00 W/m2
15:09 49.9 °F 24 °F 30.12 in NNW 12 mph 19 mph 36% 0 in 863.00 W/m2
15:14 49.9 °F 28.3 °F 30.12 in NNW 15 mph 20 mph 43% 0 in 919.00 W/m2
15:19 50.8 °F 26.1 °F 30.12 in NNW 9 mph 20 mph 38% 0 in 919.00 W/m2
15:24 50.5 °F 25.2 °F 30.12 in North 14 mph 20 mph 37% 0 in 842.00 W/m2
15:29 50.5 °F 24.5 °F 30.12 in WNW 5 mph 20 mph 36% 0 in 833.00 W/m2
15:34 50.9 °F 28 °F 30.12 in NNE 14 mph 22 mph 41% 0 in 828.00 W/m2
15:39 50.4 °F 24.4 °F 30.12 in NNW 11 mph 22 mph 36% 0 in 824.00 W/m2
15:44 50.4 °F 28.1 °F 30.12 in NW 8 mph 22 mph 42% 0 in 812.00 W/m2
15:49 51.5 °F 28.6 °F 30.11 in NNW 18 mph 22 mph 41% 0 in 810.00 W/m2
15:54 52.5 °F 27.6 °F 30.11 in NNW 6 mph 18 mph 38% 0 in 798.00 W/m2
15:59 51.5 °F 24 °F 30.11 in WNW 9 mph 18 mph 34% 0 in 795.00 W/m2
16:04 50.5 °F 25.2 °F 30.11 in WNW 7 mph 18 mph 37% 0 in 779.00 W/m2
16:09 51 °F 25 °F 30.11 in NW 6 mph 18 mph 36% 0 in 780.00 W/m2
16:14 51.2 °F 26.4 °F 30.11 in NE 7 mph 18 mph 38% 0 in 770.00 W/m2
16:19 52.1 °F 25.9 °F 30.11 in NNW 4 mph 15 mph 36% 0 in 754.00 W/m2
16:24 51 °F 22.1 °F 30.11 in WNW 9 mph 16 mph 32% 0 in 745.00 W/m2
16:29 51 °F 23.6 °F 30.11 in North 14 mph 19 mph 34% 0 in 738.00 W/m2
16:34 51.9 °F 26.4 °F 30.11 in North 6 mph 20 mph 37% 0 in 721.00 W/m2
16:39 52.6 °F 25 °F 30.11 in WNW 11 mph 20 mph 34% 0 in 710.00 W/m2
16:44 51.4 °F 23.2 °F 30.10 in WNW 9 mph 20 mph 33% 0 in 698.00 W/m2
16:49 50.7 °F 21.1 °F 30.10 in NNW 10 mph 20 mph 31% 0 in 686.00 W/m2
16:54 50.5 °F 21.7 °F 30.10 in WNW 3 mph 17 mph 32% 0 in 671.00 W/m2
16:59 51.2 °F 24.5 °F 30.10 in NW 8 mph 17 mph 35% 0 in 661.00 W/m2
17:04 51.5 °F 24.7 °F 30.10 in NW 15 mph 17 mph 35% 0 in 643.00 W/m2
17:09 51.4 °F 23.9 °F 30.09 in NNW 8 mph 15 mph 34% 0 in 631.00 W/m2
17:14 51.6 °F 23.4 °F 30.09 in NW 8 mph 15 mph 33% 0 in 621.00 W/m2
17:19 52.1 °F 23.8 °F 30.09 in NNW 14 mph 16 mph 33% 0 in 608.00 W/m2
17:24 52.4 °F 22.6 °F 30.09 in NW 12 mph 17 mph 31% 0 in 596.00 W/m2
17:29 52.2 °F 23.2 °F 30.09 in North 6 mph 17 mph 32% 0 in 580.00 W/m2
17:34 52.4 °F 26.2 °F 30.09 in North 5 mph 17 mph 36% 0 in 568.00 W/m2
17:39 52.9 °F 27.3 °F 30.09 in North 3 mph 17 mph 37% 0 in 554.00 W/m2
17:44 53.5 °F 27.2 °F 30.09 in North 3 mph 12 mph 36% 0 in 538.00 W/m2
17:49 51.8 °F 21.3 °F 30.09 in NW 9 mph 16 mph 30% 0 in 526.00 W/m2
17:54 51.8 °F 24.3 °F 30.09 in NNW 16 mph 16 mph 34% 0 in 512.00 W/m2
17:59 51.6 °F 24.1 °F 30.09 in WNW 5 mph 16 mph 34% 0 in 497.00 W/m2
18:04 51.6 °F 22.7 °F 30.08 in West 11 mph 16 mph 32% 0 in 482.00 W/m2
18:09 51.9 °F 23.7 °F 30.09 in NW 6 mph 19 mph 33% 0 in 464.00 W/m2
18:14 51.9 °F 21.4 °F 30.09 in NW 8 mph 19 mph 30% 0 in 450.00 W/m2
18:19 52.1 °F 22.3 °F 30.08 in NW 13 mph 17 mph 31% 0 in 436.00 W/m2
18:24 51.5 °F 21.8 °F 30.08 in NNW 10 mph 17 mph 31% 0 in 420.00 W/m2
18:29 52.1 °F 22.3 °F 30.08 in North 3 mph 17 mph 31% 0 in 408.00 W/m2
18:34 52.8 °F 23.7 °F 30.08 in NE 6 mph 14 mph 32% 0 in 390.00 W/m2
18:39 53.1 °F 23.2 °F 30.08 in NNW 8 mph 14 mph 31% 0 in 376.00 W/m2
18:44 52.6 °F 21.2 °F 30.08 in NW 9 mph 15 mph 29% 0 in 359.00 W/m2
18:49 51.6 °F 18.7 °F 30.08 in NW 12 mph 16 mph 27% 0 in 345.00 W/m2
18:54 50.9 °F 20.5 °F 30.08 in NW 12 mph 16 mph 30% 0 in 329.00 W/m2
18:59 51.1 °F 19.9 °F 30.08 in NW 4 mph 16 mph 29% 0 in 311.00 W/m2
19:04 50.9 °F 20.5 °F 30.08 in West 6 mph 16 mph 30% 0 in 297.00 W/m2
19:09 50.8 °F 20.4 °F 30.08 in NW 5 mph 12 mph 30% 0 in 283.00 W/m2
19:14 50.9 °F 21.3 °F 30.07 in NW 8 mph 13 mph 31% 0 in 267.00 W/m2
19:19 50.8 °F 19.6 °F 30.07 in NW 10 mph 15 mph 29% 0 in 250.00 W/m2
19:24 50.4 °F 19.3 °F 30.07 in NW 13 mph 15 mph 29% 0 in 232.00 W/m2
19:29 50.3 °F 19.2 °F 30.08 in WNW 9 mph 15 mph 29% 0 in 211.00 W/m2
19:34 50.1 °F 19 °F 30.08 in NW 7 mph 15 mph 29% 0 in 192.00 W/m2
19:39 50.1 °F 18.2 °F 30.08 in NW 9 mph 15 mph 28% 0 in 174.00 W/m2
19:44 50.1 °F 20.6 °F 30.07 in NW 6 mph 15 mph 31% 0 in 156.00 W/m2
19:49 49.9 °F 18.9 °F 30.08 in NW 5 mph 11 mph 29% 0 in 139.00 W/m2
19:54 49.7 °F 19.5 °F 30.08 in NW 5 mph 11 mph 30% 0 in 121.00 W/m2
19:59 49.5 °F 19.3 °F 30.08 in NW 4 mph 12 mph 30% 0 in 105.00 W/m2
20:04 49.2 °F 20.6 °F 30.07 in NW 11 mph 13 mph 32% 0 in 90.00 W/m2
20:09 49 °F 21.1 °F 30.07 in NW 7 mph 13 mph 33% 0 in 76.00 W/m2
20:14 48.7 °F 18.6 °F 30.08 in NW 5 mph 12 mph 30% 0 in 65.00 W/m2
20:19 48.6 °F 18.5 °F 30.07 in NW 4 mph 13 mph 30% 0 in 53.00 W/m2
20:24 48.4 °F 19.9 °F 30.08 in NW 6 mph 13 mph 32% 0 in 42.00 W/m2
20:29 48.1 °F 19.6 °F 30.08 in NW 5 mph 10 mph 32% 0 in 32.00 W/m2
20:34 47.6 °F 20.6 °F 30.08 in NW 4 mph 10 mph 34% 0 in 25.00 W/m2
20:39 47.1 °F 20.1 °F 30.08 in NW 2 mph 10 mph 34% 0 in 18.00 W/m2
20:44 46.5 °F 20.3 °F 30.08 in NW 4 mph 5 mph 35% 0 in 14.00 W/m2
20:49 45.8 °F 20.3 °F 30.08 in NW 3 mph 5 mph 36% 0 in 11.00 W/m2
20:54 45.1 °F 20.3 °F 30.08 in NW 4 mph 5 mph 37% 0 in 9.00 W/m2
20:59 44.5 °F 20.4 °F 30.08 in NNW 3 mph 5 mph 38% 0 in 7.00 W/m2
21:04 44 °F 20.6 °F 30.08 in NNW 3 mph 5 mph 39% 0 in 5.00 W/m2
21:09 43.6 °F 19.6 °F 30.08 in North 3 mph 5 mph 38% 0 in 0.00 W/m2
21:14 43.3 °F 19.4 °F 30.08 in North 3 mph 4 mph 38% 0 in 0.00 W/m2
21:19 43.2 °F 19.3 °F 30.08 in North 3 mph 4 mph 38% 0 in 0.00 W/m2
21:24 43 °F 19.1 °F 30.08 in North 3 mph 4 mph 38% 0 in 0.00 W/m2
21:29 43 °F 18.5 °F 30.08 in North 3 mph 4 mph 37% 0 in 0.00 W/m2
21:34 42.9 °F 19 °F 30.08 in North 4 mph 4 mph 38% 0 in 0.00 W/m2
21:39 42.7 °F 18.8 °F 30.08 in North 3 mph 4 mph 38% 0 in 0.00 W/m2
21:44 42.4 °F 18.6 °F 30.08 in North 4 mph 4 mph 38% 0 in 0.00 W/m2
21:49 42.3 °F 18.5 °F 30.08 in North 4 mph 5 mph 38% 0 in 0.00 W/m2
21:54 42.1 °F 18.3 °F 30.08 in North 3 mph 5 mph 38% 0 in 0.00 W/m2
21:59 42.1 °F 18.3 °F 30.09 in North 4 mph 5 mph 38% 0 in 0.00 W/m2
22:04 42 °F 18.2 °F 30.09 in North 2 mph 5 mph 38% 0 in 0.00 W/m2
22:09 41.7 °F 18.5 °F 30.09 in North 3 mph 5 mph 39% 0 in 0.00 W/m2
22:14 41.4 °F 18.3 °F 30.09 in North 3 mph 4 mph 39% 0 in 0.00 W/m2
22:19 41.3 °F 18.2 °F 30.09 in North 1 mph 4 mph 39% 0 in 0.00 W/m2
22:24 41.3 °F 17.6 °F 30.09 in North 2 mph 4 mph 38% 0 in 0.00 W/m2
22:29 41.5 °F 17.1 °F 30.09 in North 3 mph 4 mph 37% 0 in 0.00 W/m2
22:34 41.7 °F 17.9 °F 30.09 in North 3 mph 4 mph 38% 0 in 0.00 W/m2
22:39 41.8 °F 17.4 °F 30.09 in North 4 mph 4 mph 37% 0 in 0.00 W/m2
22:44 42.1 °F 17.7 °F 30.09 in North 3 mph 4 mph 37% 0 in 0.00 W/m2
22:49 42.3 °F 17.8 °F 30.09 in North 3 mph 4 mph 37% 0 in 0.00 W/m2
22:54 41.9 °F 18.1 °F 30.09 in NE 3 mph 5 mph 38% 0 in 0.00 W/m2
22:59 41.5 °F 18.4 °F 30.09 in NE 5 mph 5 mph 39% 0 in 0.00 W/m2
23:04 41.4 °F 18.3 °F 30.09 in NE 3 mph 5 mph 39% 0 in 0.00 W/m2
23:09 41.4 °F 17.7 °F 30.09 in ENE 3 mph 5 mph 38% 0 in 0.00 W/m2
23:14 41.5 °F 17.1 °F 30.09 in ENE 3 mph 5 mph 37% 0 in 0.00 W/m2
23:19 41.5 °F 17.7 °F 30.09 in ENE 3 mph 4 mph 38% 0 in 0.00 W/m2
23:24 41.2 °F 16.9 °F 30.09 in ENE 3 mph 4 mph 37% 0 in 0.00 W/m2
23:29 41.3 °F 16.3 °F 30.09 in ENE 4 mph 4 mph 36% 0 in 0.00 W/m2
23:34 41.8 °F 16.8 °F 30.08 in ENE 4 mph 4 mph 36% 0 in 0.00 W/m2
23:39 42.2 °F 17.8 °F 30.08 in ENE 4 mph 5 mph 37% 0 in 0.00 W/m2
23:44 41.9 °F 17.5 °F 30.08 in ENE 2 mph 5 mph 37% 0 in 0.00 W/m2
23:49 41 °F 18.5 °F 30.08 in East 3 mph 4 mph 40% 0 in 0.00 W/m2
23:54 40.5 °F 17.5 °F 30.08 in East 3 mph 4 mph 39% 0 in 0.00 W/m2
23:59 40.5 °F 16.9 °F 30.08 in ENE 3 mph 5 mph 38% 0 in 0.00 W/m2
Bismarck, North Dakota, USA
Compliments of Weather Underground - 4 mb